Canton, Mississippi
Current Conditions -  °F | °C
As of 12:54 PM on Sunday 23 Nov 2014 (Local Time) from KJAN Reporting Station
Broken Clouds Broken Clouds  
Wind Chill: 68°   Ceiling: 2800
Heat Index: 68°   Visibility: 10mi
Dew Point: 58°   Wind: 23mph
Humidity: 70%   Direction: 220°SW
Pressure: 29.5"   Gusts: 37mph
Location:  32.61°N, 90.03°W
Report Text: KJAN 231854Z 22020G32KT 10SM BKN028 BKN039 BKN048 20/14 A2950 RMK AO2 PK WND 20032/1847 SLP987 T02000144
Loading
Personal Weather Stations






























Interactive Weather Map New forecast layout! Learn more

10-Day Weather Forecast

Advertisements
Track Severe Weather on mobile